createdAt,value
2022-10-17T00:01:29.459Z,3.13
2022-10-17T00:03:56.077Z,3.30
2022-10-17T00:06:22.695Z,3.30
2022-10-17T00:08:49.309Z,3.25
2022-10-17T00:11:20.630Z,2.83
2022-10-17T00:13:49.041Z,2.90
2022-10-17T00:16:23.681Z,3.22
2022-10-17T00:18:52.054Z,2.55
2022-10-17T00:21:21.080Z,3.92
2022-10-17T00:23:49.100Z,2.88
2022-10-17T00:26:17.890Z,2.97
2022-10-17T00:28:50.746Z,3.63
2022-10-17T00:31:20.726Z,3.40
2022-10-17T00:33:49.777Z,2.90
2022-10-17T00:36:19.755Z,3.92
2022-10-17T00:38:48.006Z,2.90
2022-10-17T00:41:17.087Z,2.92
2022-10-17T00:46:30.634Z,1.60
2022-10-17T00:51:33.738Z,1.10
2022-10-17T00:54:01.723Z,1.40
2022-10-17T00:56:28.575Z,2.05
2022-10-17T00:58:55.913Z,1.55
2022-10-17T01:01:22.579Z,1.50
2022-10-17T01:03:49.282Z,1.63
2022-10-17T01:06:15.893Z,1.10
2022-10-17T01:08:42.658Z,1.08
2022-10-17T01:11:27.424Z,1.30
2022-10-17T01:14:07.773Z,1.10
2022-10-17T01:16:44.928Z,1.25
2022-10-17T01:19:43.701Z,0.95
2022-10-17T01:30:35.368Z,1.27
2022-10-17T01:36:10.726Z,2.15
2022-10-17T01:38:47.381Z,2.00
2022-10-17T01:46:41.445Z,1.17
2022-10-17T01:49:11.188Z,0.90
2022-10-17T01:51:47.897Z,1.30
2022-10-17T01:54:27.963Z,1.00
2022-10-17T01:57:01.532Z,1.00
2022-10-17T01:59:38.941Z,0.98
2022-10-17T02:02:07.428Z,1.10
2022-10-17T02:04:35.371Z,1.45
2022-10-17T02:07:11.154Z,1.60
2022-10-17T02:09:38.534Z,1.35
2022-10-17T02:17:58.089Z,1.02
2022-10-17T02:20:40.612Z,0.60
2022-10-17T02:25:54.071Z,1.15
2022-10-17T02:33:49.465Z,2.30
2022-10-17T02:36:21.518Z,1.40
2022-10-17T02:38:50.571Z,0.90
2022-10-17T02:41:19.073Z,0.90
2022-10-17T02:43:48.912Z,1.20
2022-10-17T02:46:21.237Z,0.88
2022-10-17T02:48:53.673Z,1.10
2022-10-17T02:51:37.085Z,1.38
2022-10-17T02:54:28.303Z,0.55
2022-10-17T02:57:02.927Z,1.23
2022-10-17T03:02:06.133Z,0.70
2022-10-17T03:04:33.591Z,0.75
2022-10-17T03:07:00.333Z,0.75
2022-10-17T03:09:27.387Z,0.95
2022-10-17T03:11:54.016Z,0.90
2022-10-17T03:14:20.579Z,0.98
2022-10-17T03:16:47.129Z,0.88
2022-10-17T03:19:13.931Z,1.48
2022-10-17T03:21:40.577Z,1.23
2022-10-17T03:24:07.663Z,1.33
2022-10-17T03:26:34.436Z,0.70
2022-10-17T03:29:01.028Z,2.05
2022-10-17T03:31:27.562Z,1.88
2022-10-17T03:33:54.190Z,2.45
2022-10-17T03:36:20.990Z,0.75
2022-10-17T03:38:48.334Z,1.08
2022-10-17T03:41:15.053Z,0.90
2022-10-17T03:43:41.614Z,0.85
2022-10-17T03:46:08.261Z,1.08
2022-10-17T03:48:35.065Z,1.13
2022-10-17T03:51:05.085Z,1.17
2022-10-17T03:53:32.384Z,1.27
2022-10-17T03:56:10.094Z,1.48
2022-10-17T03:58:36.805Z,1.08
2022-10-17T04:01:06.257Z,0.95
2022-10-17T04:03:33.229Z,0.75
2022-10-17T04:06:01.055Z,1.13
2022-10-17T04:08:28.426Z,0.95
2022-10-17T04:11:05.132Z,0.73
2022-10-17T04:13:32.785Z,0.95
2022-10-17T04:16:02.559Z,0.73
2022-10-17T04:18:29.316Z,0.50
2022-10-17T04:20:55.899Z,0.73
2022-10-17T04:23:23.007Z,0.75
2022-10-17T04:25:49.572Z,0.63
2022-10-17T04:28:16.250Z,0.43
2022-10-17T04:30:45.134Z,0.40
2022-10-17T04:33:12.230Z,0.52
2022-10-17T04:35:38.869Z,1.10
2022-10-17T04:38:05.403Z,0.70
2022-10-17T04:40:31.989Z,0.50
2022-10-17T04:42:58.538Z,0.77
2022-10-17T04:45:25.093Z,0.70
2022-10-17T04:47:51.625Z,0.70
2022-10-17T04:50:18.460Z,0.95
2022-10-17T04:52:45.165Z,0.57
2022-10-17T04:55:11.719Z,0.73
2022-10-17T04:57:38.312Z,1.48
2022-10-17T05:00:05.380Z,0.65
2022-10-17T05:02:32.141Z,0.85
2022-10-17T05:04:58.853Z,0.95
2022-10-17T05:07:25.446Z,0.90
2022-10-17T05:09:51.982Z,0.40
2022-10-17T05:12:18.613Z,0.75
2022-10-17T05:14:45.229Z,0.80
2022-10-17T05:17:11.841Z,0.60
2022-10-17T05:19:38.412Z,0.75
2022-10-17T05:22:04.957Z,0.43
2022-10-17T05:24:31.478Z,1.45
2022-10-17T05:26:58.088Z,0.52
2022-10-17T05:29:24.681Z,0.65
2022-10-17T05:31:51.328Z,0.80
2022-10-17T05:34:17.964Z,0.60
2022-10-17T05:36:44.603Z,0.90
2022-10-17T05:39:14.850Z,0.80
2022-10-17T05:41:41.457Z,0.93
2022-10-17T05:44:08.058Z,1.00
2022-10-17T05:46:34.644Z,0.57
2022-10-17T05:49:01.153Z,0.88
2022-10-17T05:51:27.790Z,0.75
2022-10-17T05:53:54.442Z,1.23
2022-10-17T05:56:20.943Z,1.55
2022-10-17T05:58:50.392Z,0.82
2022-10-17T06:01:18.898Z,0.93
2022-10-17T06:03:45.468Z,0.85
2022-10-17T06:06:14.041Z,1.02
2022-10-17T06:08:40.699Z,1.65
2022-10-17T06:11:10.027Z,0.90
2022-10-17T06:16:03.993Z,0.82
2022-10-17T06:18:30.798Z,0.82
2022-10-17T06:21:07.806Z,0.98
2022-10-17T06:23:34.712Z,1.48
2022-10-17T06:26:02.954Z,1.00
2022-10-17T06:28:30.129Z,0.85
2022-10-17T06:30:57.250Z,0.80
2022-10-17T06:33:23.921Z,1.08
2022-10-17T06:35:53.469Z,1.63
2022-10-17T06:38:20.475Z,1.08
2022-10-17T06:40:47.148Z,1.63
2022-10-17T06:43:14.096Z,1.17
2022-10-17T06:45:40.957Z,0.80
2022-10-17T06:48:08.055Z,1.33
2022-10-17T06:50:35.093Z,0.65
2022-10-17T06:53:01.664Z,1.50
2022-10-17T06:55:28.266Z,1.08
2022-10-17T06:57:56.433Z,0.93
2022-10-17T07:00:23.589Z,0.88
2022-10-17T07:02:50.646Z,1.35
2022-10-17T07:05:19.642Z,0.60
2022-10-17T07:07:49.601Z,1.67
2022-10-17T07:10:17.628Z,0.70
2022-10-17T07:12:46.027Z,0.90
2022-10-17T07:15:13.163Z,1.23
2022-10-17T07:17:39.845Z,2.03
2022-10-17T07:20:07.188Z,1.48
2022-10-17T07:22:33.830Z,1.15
2022-10-17T07:25:00.385Z,0.93
2022-10-17T07:27:27.292Z,1.60
2022-10-17T07:29:54.174Z,1.15
2022-10-17T07:32:21.121Z,0.95
2022-10-17T07:34:47.717Z,1.70
2022-10-17T07:37:14.399Z,1.15
2022-10-17T07:39:41.000Z,0.70
2022-10-17T07:42:07.863Z,1.15
2022-10-17T07:44:35.582Z,1.05
2022-10-17T07:47:02.407Z,1.35
2022-10-17T07:49:29.476Z,1.08
2022-10-17T07:51:56.083Z,1.10
2022-10-17T07:54:23.284Z,1.00
2022-10-17T07:56:50.912Z,1.00
2022-10-17T07:59:19.384Z,0.63
2022-10-17T08:01:46.181Z,1.42
2022-10-17T08:04:13.124Z,1.27
2022-10-17T08:06:39.962Z,0.88
2022-10-17T08:09:06.726Z,0.95
2022-10-17T08:11:33.459Z,1.75
2022-10-17T08:14:00.135Z,1.40
2022-10-17T08:16:26.742Z,0.98
2022-10-17T08:18:53.911Z,1.50
2022-10-17T08:21:20.941Z,1.23
2022-10-17T08:23:47.565Z,1.17
2022-10-17T08:26:17.294Z,0.88
2022-10-17T08:28:44.451Z,1.35
2022-10-17T08:31:15.088Z,1.35
2022-10-17T08:33:42.275Z,1.10
2022-10-17T08:36:09.735Z,1.10
2022-10-17T08:38:38.472Z,1.00
2022-10-17T08:46:47.005Z,1.17
2022-10-17T08:49:23.349Z,1.05
2022-10-17T08:51:58.081Z,0.70
2022-10-17T08:54:43.005Z,0.70
2022-10-17T08:57:14.103Z,2.50
2022-10-17T08:59:42.115Z,1.08
2022-10-17T09:05:30.504Z,0.75
2022-10-17T09:08:09.209Z,0.63
2022-10-17T09:13:46.546Z,3.15
2022-10-17T09:19:02.028Z,1.30
2022-10-17T09:24:15.777Z,1.10
2022-10-17T09:26:45.547Z,1.92
2022-10-17T09:29:20.661Z,1.00
2022-10-17T09:32:10.339Z,0.73
2022-10-17T09:34:37.023Z,1.13
2022-10-17T09:37:03.765Z,1.20
2022-10-17T09:39:33.020Z,0.73
2022-10-17T09:42:01.723Z,1.33
2022-10-17T09:49:42.887Z,1.42
2022-10-17T09:52:18.630Z,1.00
2022-10-17T09:54:48.457Z,1.10
2022-10-17T09:57:17.091Z,2.05
2022-10-17T10:02:24.739Z,2.90
2022-10-17T10:07:31.031Z,0.98
2022-10-17T10:09:59.117Z,0.75
2022-10-17T10:12:29.973Z,1.30
2022-10-17T10:14:57.777Z,1.40
2022-10-17T10:17:41.979Z,0.77
2022-10-17T10:25:56.337Z,2.20
2022-10-17T10:28:27.138Z,2.50
2022-10-17T10:30:55.580Z,1.98
2022-10-17T10:33:25.787Z,2.33
2022-10-17T10:35:57.387Z,3.17
2022-10-17T10:38:24.716Z,3.55
2022-10-17T10:40:56.018Z,3.13
2022-10-17T10:43:46.727Z,2.17
2022-10-17T10:54:32.004Z,0.95
2022-10-17T10:57:03.490Z,1.05
2022-10-17T11:05:19.527Z,2.67
2022-10-17T11:07:53.510Z,2.25
2022-10-17T11:10:35.786Z,1.33
2022-10-17T11:15:51.638Z,1.30
2022-10-17T11:20:58.564Z,1.30
2022-10-17T11:26:11.388Z,2.60
2022-10-17T11:28:38.110Z,1.88
2022-10-17T11:31:11.694Z,1.02
2022-10-17T11:36:39.669Z,1.67
2022-10-17T11:39:14.704Z,0.98
2022-10-17T11:42:07.117Z,0.82
2022-10-17T11:44:37.271Z,1.40
2022-10-17T11:52:57.298Z,1.05
2022-10-17T11:55:27.900Z,1.13
2022-10-17T12:09:12.370Z,0.60
2022-10-17T12:25:35.787Z,1.20
2022-10-17T12:30:56.690Z,0.70
2022-10-17T12:49:38.287Z,2.13
2022-10-17T12:52:27.469Z,1.50
2022-10-17T13:00:20.147Z,0.82
2022-10-17T13:02:49.014Z,0.85
2022-10-17T13:05:27.112Z,1.73
2022-10-17T13:07:55.440Z,1.15
2022-10-17T13:15:31.972Z,1.70
2022-10-17T13:18:00.647Z,1.10
2022-10-17T13:20:31.585Z,1.67
2022-10-17T13:22:59.208Z,1.20
2022-10-17T13:25:27.412Z,0.80
2022-10-17T13:28:05.678Z,0.77
2022-10-17T13:30:37.152Z,1.20
2022-10-17T13:33:04.244Z,0.85
2022-10-17T13:38:28.497Z,1.73
2022-10-17T13:41:01.970Z,1.08
2022-10-17T13:43:43.141Z,1.65
2022-10-17T13:46:36.932Z,1.50
2022-10-17T13:49:32.372Z,1.55
2022-10-17T13:52:00.768Z,1.02
2022-10-17T13:59:58.979Z,5.25
2022-10-17T14:02:29.234Z,1.60
2022-10-17T14:10:21.808Z,1.00
2022-10-17T14:12:51.066Z,0.88
2022-10-17T14:15:19.138Z,0.85
2022-10-17T14:17:46.934Z,1.15
2022-10-17T14:29:20.698Z,2.28
2022-10-17T14:31:50.773Z,1.92
2022-10-17T14:34:24.518Z,2.17
2022-10-17T14:36:53.030Z,1.75
2022-10-17T14:39:23.473Z,2.08
2022-10-17T14:41:51.708Z,3.30
2022-10-17T14:44:28.747Z,2.92
2022-10-17T14:47:18.201Z,2.45
2022-10-17T14:49:51.980Z,2.47
2022-10-17T14:54:53.971Z,0.95
2022-10-17T15:00:00.105Z,0.88
2022-10-17T15:02:29.892Z,0.85
2022-10-17T15:04:57.820Z,1.20
2022-10-17T15:07:25.134Z,1.23
2022-10-17T15:09:53.687Z,2.40
2022-10-17T15:12:25.628Z,4.75
2022-10-17T15:14:53.126Z,1.60
2022-10-17T15:17:24.368Z,1.38
2022-10-17T15:19:51.703Z,1.70
2022-10-17T15:22:18.747Z,0.73
2022-10-17T15:24:46.472Z,1.00
2022-10-17T15:27:18.046Z,1.35
2022-10-17T15:29:46.082Z,0.80
2022-10-17T15:32:12.939Z,0.95
2022-10-17T15:34:39.941Z,1.75
2022-10-17T15:37:14.573Z,0.70
2022-10-17T15:39:41.286Z,0.68
2022-10-17T15:42:12.413Z,0.57
2022-10-17T15:44:40.622Z,0.43
2022-10-17T15:47:15.429Z,0.98
2022-10-17T15:49:42.458Z,0.93
2022-10-17T15:52:09.274Z,1.52
2022-10-17T15:54:36.072Z,0.95
2022-10-17T15:57:02.699Z,1.02
2022-10-17T15:59:33.554Z,1.15
2022-10-17T16:02:00.168Z,1.15
2022-10-17T16:04:27.707Z,0.65
2022-10-17T16:06:55.116Z,1.65
2022-10-17T16:09:21.882Z,1.23
2022-10-17T16:11:48.543Z,0.93
2022-10-17T16:14:18.248Z,0.63
2022-10-17T16:19:11.936Z,0.80
2022-10-17T16:21:41.089Z,0.85
2022-10-17T16:24:12.226Z,1.40
2022-10-17T16:26:39.795Z,0.82
2022-10-17T16:29:06.491Z,1.45
2022-10-17T16:31:35.904Z,0.82
2022-10-17T16:34:04.444Z,1.92
2022-10-17T16:36:31.145Z,2.85
2022-10-17T16:38:57.927Z,0.70
2022-10-17T16:41:40.305Z,0.80
2022-10-17T16:44:10.625Z,0.60
2022-10-17T16:46:38.082Z,0.98
2022-10-17T16:49:05.492Z,0.52
2022-10-17T16:51:34.046Z,0.85
2022-10-17T16:54:00.722Z,1.08
2022-10-17T16:56:32.709Z,2.20
2022-10-17T16:59:00.715Z,0.60
2022-10-17T17:01:29.449Z,0.95
2022-10-17T17:03:56.777Z,0.95
2022-10-17T17:06:26.754Z,0.85
2022-10-17T17:08:54.490Z,0.60
2022-10-17T17:11:23.626Z,0.40
2022-10-17T17:13:50.349Z,0.90
2022-10-17T17:16:21.516Z,0.57
2022-10-17T17:18:51.409Z,1.00
2022-10-17T17:21:17.959Z,1.00
2022-10-17T17:23:44.806Z,0.40
2022-10-17T17:26:14.348Z,0.98
2022-10-17T17:28:41.894Z,1.02
2022-10-17T17:31:10.786Z,0.70
2022-10-17T17:33:39.454Z,0.65
2022-10-17T17:36:06.745Z,0.70
2022-10-17T17:38:35.909Z,1.50
2022-10-17T17:41:03.984Z,0.88
2022-10-17T17:43:30.888Z,0.85
2022-10-17T17:45:57.663Z,0.73
2022-10-17T17:48:24.251Z,0.73
2022-10-17T17:50:50.936Z,0.50
2022-10-17T17:53:18.257Z,1.23
2022-10-17T17:55:45.178Z,3.33
2022-10-17T17:58:12.632Z,2.35
2022-10-17T18:00:40.652Z,2.45
2022-10-17T18:03:07.804Z,1.17
2022-10-17T18:05:34.446Z,0.55
2022-10-17T18:08:01.030Z,0.32
2022-10-17T18:10:29.397Z,0.73
2022-10-17T18:12:56.053Z,0.57
2022-10-17T18:15:22.932Z,1.33
2022-10-17T18:17:49.730Z,0.90
2022-10-17T18:20:16.347Z,1.05
2022-10-17T18:22:42.988Z,0.73
2022-10-17T18:25:09.966Z,0.70
2022-10-17T18:27:36.783Z,1.38
2022-10-17T18:30:04.244Z,1.08
2022-10-17T18:32:32.495Z,2.22
2022-10-17T18:34:59.269Z,2.22
2022-10-17T18:37:26.045Z,1.48
2022-10-17T18:39:55.320Z,1.60
2022-10-17T18:42:21.959Z,0.95
2022-10-17T18:44:48.918Z,1.42
2022-10-17T18:47:16.172Z,3.47
2022-10-17T18:49:42.992Z,1.33
2022-10-17T18:52:09.588Z,0.82
2022-10-17T18:54:36.341Z,0.90
2022-10-17T18:57:03.022Z,1.52
2022-10-17T18:59:29.725Z,1.50
2022-10-17T19:01:56.352Z,1.77
2022-10-17T19:04:23.873Z,2.00
2022-10-17T19:06:50.442Z,1.65
2022-10-17T19:09:17.353Z,2.08
2022-10-17T19:11:44.159Z,2.55
2022-10-17T19:14:13.545Z,5.28
2022-10-17T19:16:43.900Z,3.85
2022-10-17T19:19:15.058Z,3.70
2022-10-17T19:21:42.564Z,2.10
2022-10-17T19:24:13.466Z,1.67
2022-10-17T19:26:40.750Z,1.52
2022-10-17T19:29:07.864Z,1.33
2022-10-17T19:31:39.880Z,1.23
2022-10-17T19:34:06.459Z,0.65
2022-10-17T19:36:35.044Z,1.02
2022-10-17T19:39:05.677Z,0.77
2022-10-17T19:41:32.990Z,0.85
2022-10-17T19:44:00.614Z,0.95
2022-10-17T19:46:28.596Z,1.63
2022-10-17T19:48:55.511Z,1.23
2022-10-17T19:51:24.661Z,2.03
2022-10-17T19:53:52.421Z,0.70
2022-10-17T19:56:21.120Z,1.05
2022-10-17T19:58:48.792Z,1.55
2022-10-17T20:01:19.162Z,1.23
2022-10-17T20:03:46.543Z,1.27
2022-10-17T20:06:13.963Z,4.15
2022-10-17T20:08:40.849Z,1.75
2022-10-17T20:11:10.570Z,1.45
2022-10-17T20:13:37.886Z,1.58
2022-10-17T20:16:06.238Z,0.68
2022-10-17T20:18:33.725Z,0.95
2022-10-17T20:21:06.345Z,1.05
2022-10-17T20:23:33.183Z,1.88
2022-10-17T20:26:08.649Z,2.00
2022-10-17T20:28:46.206Z,0.93
2022-10-17T20:31:13.499Z,1.80
2022-10-17T20:33:41.527Z,0.85
2022-10-17T20:36:13.030Z,0.80
2022-10-17T20:38:39.814Z,2.22
2022-10-17T20:41:09.431Z,3.17
2022-10-17T20:43:36.943Z,2.13
2022-10-17T20:46:21.878Z,4.68
2022-10-17T20:48:53.434Z,5.07
2022-10-17T20:53:48.440Z,3.20
2022-10-17T20:56:26.937Z,5.60
2022-10-17T20:58:56.784Z,4.00
2022-10-17T21:01:24.336Z,4.35
2022-10-17T21:03:51.310Z,2.78
2022-10-17T21:06:18.870Z,1.92
2022-10-17T21:08:47.027Z,1.92
2022-10-17T21:11:17.255Z,1.83
2022-10-17T21:13:44.749Z,1.08
2022-10-17T21:16:17.195Z,1.58
2022-10-17T21:18:44.547Z,1.65
2022-10-17T21:23:49.535Z,3.45
2022-10-17T21:26:17.404Z,3.38
2022-10-17T21:28:45.615Z,6.25
2022-10-17T21:31:27.823Z,3.38
2022-10-17T21:33:57.295Z,2.80
2022-10-17T21:36:25.469Z,4.63
2022-10-17T21:38:53.535Z,2.58
2022-10-17T21:41:23.085Z,3.17
2022-10-17T21:43:54.321Z,3.25
2022-10-17T21:46:21.159Z,1.65
2022-10-17T21:48:48.692Z,1.02
2022-10-17T21:51:17.401Z,0.80
2022-10-17T21:53:44.693Z,1.38
2022-10-17T21:56:19.490Z,2.85
2022-10-17T21:58:46.802Z,4.28
2022-10-17T22:01:19.713Z,1.85
2022-10-17T22:03:48.797Z,2.22
2022-10-17T22:06:38.530Z,3.50
2022-10-17T22:09:07.157Z,4.07
2022-10-17T22:11:35.645Z,4.05
2022-10-17T22:14:06.389Z,3.22
2022-10-17T22:16:33.801Z,1.33
2022-10-17T22:19:05.896Z,0.75
2022-10-17T22:21:34.460Z,1.27
2022-10-17T22:24:07.239Z,0.90
2022-10-17T22:26:36.270Z,1.13
2022-10-17T22:29:04.430Z,1.42
2022-10-17T22:31:31.102Z,1.27
2022-10-17T22:33:57.784Z,2.17
2022-10-17T22:36:24.460Z,2.15
2022-10-17T22:38:51.100Z,1.23
2022-10-17T22:41:17.860Z,1.25
2022-10-17T22:43:44.568Z,1.05
2022-10-17T22:46:13.514Z,1.10
2022-10-17T22:48:40.427Z,0.85
2022-10-17T22:51:07.428Z,0.90
2022-10-17T22:53:35.177Z,0.80
2022-10-17T22:56:05.868Z,1.65
2022-10-17T22:58:35.686Z,1.55
2022-10-17T23:01:03.556Z,1.10
2022-10-17T23:03:31.913Z,1.30
2022-10-17T23:05:58.881Z,1.35
2022-10-17T23:08:26.083Z,1.05
2022-10-17T23:10:52.914Z,1.75
2022-10-17T23:13:21.262Z,0.68
2022-10-17T23:15:53.049Z,1.08
2022-10-17T23:18:19.947Z,1.15
2022-10-17T23:20:46.598Z,0.80
2022-10-17T23:23:13.499Z,1.50
2022-10-17T23:25:40.317Z,3.50
2022-10-17T23:28:08.797Z,1.45
2022-10-17T23:30:36.596Z,0.95
2022-10-17T23:33:04.063Z,1.38
2022-10-17T23:35:31.077Z,1.02
2022-10-17T23:37:57.913Z,1.20
2022-10-17T23:40:24.486Z,1.52
2022-10-17T23:42:51.108Z,0.95
2022-10-17T23:45:17.954Z,1.27
2022-10-17T23:47:44.598Z,1.77
2022-10-17T23:50:11.222Z,3.05
2022-10-17T23:52:38.026Z,3.50
2022-10-17T23:55:05.150Z,2.47
2022-10-17T23:57:32.180Z,1.60
2022-10-17T23:59:59.086Z,1.23
